Time;durP1;ratioP1;P1;durP2;ratioP2;P2;SDS_P1;SDS_P2;PMS_P1;PMS_P2;Temp;Humidity;BMP_temperature;BMP_pressure;BME280_temperature;BME280_humidity;BME280_pressure;Samples;Min_cycle;Max_cycle;Signal;HPM_P1;HPM_P2
2022/01/28 00:01:47;;;;;;;30.45;13.25;;;2.60;99.90;;;;;;5077243;28;20481;-68
2022/01/28 00:04:15;;;;;;;26.52;11.52;;;2.60;99.90;;;;;;5096016;28;20509;-68
2022/01/28 00:06:41;;;;;;;29.33;12.75;;;2.70;99.90;;;;;;5095191;28;20063;-69
2022/01/28 00:09:07;;;;;;;30.92;14.15;;;2.70;99.90;;;;;;5094993;28;20034;-68
2022/01/28 00:11:33;;;;;;;26.40;11.95;;;2.80;99.90;;;;;;5093843;28;20076;-69
2022/01/28 00:14:16;;;;;;;31.07;13.70;;;2.80;99.90;;;;;;5094565;28;20428;-69
2022/01/28 00:38:26;;;;;;;27.92;12.77;;;2.80;99.90;;;;;;5094703;28;20027;-69
2022/01/28 00:40:52;;;;;;;26.08;13.18;;;2.90;99.90;;;;;;5094822;28;20012;-69
2022/01/28 00:43:17;;;;;;;25.70;12.70;;;2.90;99.90;;;;;;5094222;28;20091;-69
2022/01/28 00:45:43;;;;;;;28.20;12.70;;;2.90;99.90;;;;;;5075901;28;20538;-69
2022/01/28 00:48:08;;;;;;;25.87;12.30;;;2.90;99.90;;;;;;5094092;28;20016;-69
2022/01/28 00:50:34;;;;;;;28.07;12.33;;;3.00;99.90;;;;;;5094260;28;20016;-69
2022/01/28 00:53:00;;;;;;;25.55;11.45;;;3.00;99.90;;;;;;5093983;28;20028;-70
2022/01/28 00:55:26;;;;;;;25.43;12.50;;;2.90;99.90;;;;;;5093949;28;20020;-69
2022/01/28 00:57:51;;;;;;;25.80;13.00;;;3.00;99.90;;;;;;5075694;28;20024;-69
2022/01/28 01:00:17;;;;;;;27.77;12.60;;;3.00;99.90;;;;;;5094020;28;20052;-69
2022/01/28 01:02:43;;;;;;;25.38;13.07;;;3.00;99.90;;;;;;5075815;28;20027;-69
2022/01/28 01:05:09;;;;;;;27.35;12.82;;;3.00;99.90;;;;;;5093967;28;20028;-69
2022/01/28 01:07:35;;;;;;;29.23;12.98;;;3.00;99.90;;;;;;5093837;28;20028;-68
2022/01/28 01:10:05;;;;;;;23.98;11.75;;;3.00;99.90;;;;;;5094066;28;20494;-68
2022/01/28 01:12:33;;;;;;;24.60;11.73;;;3.00;99.90;;;;;;5094065;28;20475;-68
2022/01/28 01:14:58;;;;;;;24.92;11.85;;;3.10;99.90;;;;;;5093796;28;20036;-69
2022/01/28 01:19:54;;;;;;;23.90;11.87;;;3.10;99.90;;;;;;5093565;28;20431;-69
2022/01/28 01:22:20;;;;;;;24.13;12.05;;;3.10;99.90;;;;;;5093797;28;20012;-68
2022/01/28 01:24:52;;;;;;;28.10;11.85;;;3.10;99.90;;;;;;5093763;28;20026;-68
2022/01/28 01:27:19;;;;;;;25.48;11.90;;;3.10;99.90;;;;;;5075401;28;20028;-69
2022/01/28 01:29:46;;;;;;;28.27;12.90;;;3.10;99.90;;;;;;5093510;28;20020;-70
2022/01/28 01:32:17;;;;;;;25.30;11.70;;;3.10;99.90;;;;;;5075290;28;20396;-69
2022/01/28 01:34:43;;;;;;;28.63;13.05;;;3.10;99.90;;;;;;5093608;28;20050;-68
2022/01/28 01:37:12;;;;;;;29.40;13.18;;;3.10;99.90;;;;;;5093399;28;20099;-69
2022/01/28 01:39:39;;;;;;;28.75;14.73;;;3.10;99.90;;;;;;5075039;28;20039;-69
2022/01/28 01:42:27;;;;;;;25.50;13.27;;;3.10;99.90;;;;;;5093632;28;20069;-69
2022/01/28 01:52:56;;;;;;;37.25;17.48;;;3.20;99.90;;;;;;5093530;28;20054;-69
2022/01/28 01:55:22;;;;;;;30.35;13.45;;;3.20;99.90;;;;;;5094011;28;20020;-68
2022/01/28 01:57:51;;;;;;;32.28;13.75;;;3.20;99.90;;;;;;5093336;28;20111;-69
2022/01/28 02:00:17;;;;;;;28.77;13.43;;;3.20;99.90;;;;;;5075363;28;20078;-69
2022/01/28 02:02:43;;;;;;;27.60;13.40;;;3.30;99.90;;;;;;5093323;28;20066;-68
2022/01/28 02:05:08;;;;;;;33.07;13.07;;;3.20;99.90;;;;;;5075704;28;20397;-69
2022/01/28 02:07:37;;;;;;;25.83;12.63;;;3.20;99.90;;;;;;5093493;28;20052;-69
2022/01/28 02:10:03;;;;;;;28.63;14.02;;;3.20;99.90;;;;;;5075158;28;20025;-68
2022/01/28 02:12:47;;;;;;;24.43;12.37;;;3.20;99.90;;;;;;5093645;28;20078;-70
2022/01/28 02:15:12;;;;;;;27.77;14.02;;;3.30;99.90;;;;;;5093730;28;20288;-69
2022/01/28 02:17:38;;;;;;;33.97;15.43;;;3.30;99.90;;;;;;5094571;28;20024;-69
2022/01/28 02:20:11;;;;;;;27.00;12.93;;;3.30;99.90;;;;;;5077590;28;20021;-69
2022/01/28 02:22:36;;;;;;;33.78;15.82;;;3.30;99.90;;;;;;5095068;28;20035;-68
2022/01/28 02:25:03;;;;;;;24.80;12.67;;;3.40;99.90;;;;;;5093920;28;20099;-68
2022/01/28 02:27:28;;;;;;;25.52;12.55;;;3.30;99.90;;;;;;5093840;28;20035;-68
2022/01/28 02:29:55;;;;;;;26.17;12.82;;;3.40;99.90;;;;;;5093933;28;20028;-69
2022/01/28 02:32:22;;;;;;;29.83;12.70;;;3.30;99.90;;;;;;5093613;28;20024;-68
2022/01/28 02:34:48;;;;;;;25.50;12.55;;;3.40;99.90;;;;;;5095323;28;20130;-69
2022/01/28 02:37:13;;;;;;;27.20;13.30;;;3.40;99.90;;;;;;5098174;28;20024;-69
2022/01/28 02:39:39;;;;;;;32.00;13.43;;;3.40;99.90;;;;;;5098116;28;20024;-69
2022/01/28 02:42:20;;;;;;;27.03;13.33;;;3.40;99.90;;;;;;5078616;28;20393;-69
2022/01/28 02:47:15;;;;;;;26.27;13.73;;;3.40;99.90;;;;;;5096722;28;20104;-69
2022/01/28 02:49:43;;;;;;;30.02;13.32;;;3.40;99.90;;;;;;5096670;28;20149;-69
2022/01/28 02:52:17;;;;;;;31.70;14.15;;;3.40;99.90;;;;;;5096544;28;20472;-69
2022/01/28 02:54:46;;;;;;;26.35;13.15;;;3.40;99.90;;;;;;5097229;28;20034;-69
2022/01/28 02:57:15;;;;;;;25.58;13.50;;;3.40;99.90;;;;;;5097360;28;20491;-69
2022/01/28 02:59:41;;;;;;;26.52;12.85;;;3.40;99.90;;;;;;5078889;28;20533;-69
2022/01/28 03:02:07;;;;;;;26.37;12.30;;;3.40;99.90;;;;;;5096737;28;20181;-68
2022/01/28 03:07:16;;;;;;;33.13;15.00;;;3.40;99.90;;;;;;5096553;28;20038;-69
2022/01/28 03:10:14;;;;;;;27.97;14.70;;;3.40;99.90;;;;;;5078070;28;20028;-68
2022/01/28 03:12:59;;;;;;;27.42;13.05;;;3.40;99.90;;;;;;5095569;28;20024;-69
2022/01/28 03:15:23;;;;;;;30.73;15.30;;;3.40;99.90;;;;;;5095763;28;20024;-69
2022/01/28 03:20:35;;;;;;;28.77;13.67;;;3.40;99.90;;;;;;5096056;28;20127;-69
2022/01/28 03:23:01;;;;;;;29.90;13.83;;;3.50;99.90;;;;;;5095775;28;20082;-68
2022/01/28 03:25:27;;;;;;;27.57;13.57;;;3.50;99.90;;;;;;5095942;28;20297;-69
2022/01/28 03:27:55;;;;;;;29.92;13.55;;;3.50;99.90;;;;;;5077515;28;20025;-69
2022/01/28 03:30:22;;;;;;;30.80;13.40;;;3.50;99.90;;;;;;5077421;28;20028;-69
2022/01/28 03:32:48;;;;;;;32.42;15.07;;;3.50;99.90;;;;;;5095312;28;20044;-69
2022/01/28 03:35:16;;;;;;;30.13;13.43;;;3.50;99.90;;;;;;5077379;28;20031;-69
2022/01/28 03:37:42;;;;;;;31.65;14.70;;;3.40;99.90;;;;;;5077263;28;20519;-69
2022/01/28 03:40:08;;;;;;;29.40;14.10;;;3.50;99.90;;;;;;5095348;28;20039;-69
2022/01/28 03:42:34;;;;;;;31.77;13.82;;;3.40;99.90;;;;;;5077182;28;20032;-69
2022/01/28 03:45:00;;;;;;;;;;;3.40;99.90;;;;;;5097104;28;20099;-69
2022/01/28 03:47:26;;;;;;;30.15;13.05;;;3.40;99.90;;;;;;5096426;28;20012;-69
2022/01/28 03:49:51;;;;;;;31.23;13.47;;;3.40;99.90;;;;;;5096089;28;20035;-69
2022/01/28 03:52:17;;;;;;;31.17;13.03;;;3.40;99.90;;;;;;5095196;28;20032;-69
2022/01/28 03:54:43;;;;;;;28.77;13.77;;;3.40;99.90;;;;;;5095588;28;20021;-69
2022/01/28 03:57:15;;;;;;;31.00;13.80;;;3.40;99.90;;;;;;5095584;28;20028;-68
2022/01/28 03:59:40;;;;;;;28.42;14.00;;;3.40;99.90;;;;;;5095654;28;20044;-68
2022/01/28 04:02:07;;;;;;;31.05;13.85;;;3.40;99.90;;;;;;5094976;28;20020;-69
2022/01/28 04:12:40;;;;;;;30.20;12.90;;;3.40;99.90;;;;;;5095117;28;20488;-68
2022/01/28 04:17:51;;;;;;;30.23;14.45;;;3.20;99.90;;;;;;5094786;28;20034;-68
2022/01/28 04:20:17;;;;;;;32.90;14.60;;;3.20;99.90;;;;;;5095822;28;20028;-69
2022/01/28 04:22:43;;;;;;;30.45;14.10;;;3.10;99.90;;;;;;5100809;28;20025;-69
2022/01/28 04:25:09;;;;;;;33.88;14.63;;;3.20;99.90;;;;;;5077483;28;20107;-68
2022/01/28 04:27:35;;;;;;;36.13;14.67;;;3.20;99.90;;;;;;5075784;28;20032;-68
2022/01/28 04:30:01;;;;;;;29.27;14.00;;;3.20;99.90;;;;;;5094185;28;20347;-68
2022/01/28 04:32:28;;;;;;;32.45;14.75;;;3.20;99.90;;;;;;5075671;28;20365;-68
2022/01/28 04:34:55;;;;;;;34.30;14.27;;;3.10;99.90;;;;;;5093694;28;20069;-68
2022/01/28 04:45:29;;;;;;;31.85;15.20;;;3.00;99.90;;;;;;5094027;28;20025;-68
2022/01/28 04:58:40;;;;;;;36.30;14.60;;;2.90;99.90;;;;;;5093996;28;20043;-68
2022/01/28 05:17:04;;;;;;;35.70;15.02;;;3.10;99.90;;;;;;5094471;28;20020;-69
2022/01/28 05:27:19;;;;;;;32.30;14.23;;;3.10;99.90;;;;;;5093974;28;20020;-72
2022/01/28 05:29:45;;;;;;;32.53;15.27;;;3.10;99.90;;;;;;5075272;28;20058;-70
2022/01/28 05:32:11;;;;;;;34.42;14.23;;;3.10;99.90;;;;;;5093304;28;20124;-69
2022/01/28 05:34:38;;;;;;;36.42;13.73;;;3.10;99.90;;;;;;5093714;28;20127;-72
2022/01/28 05:37:05;;;;;;;33.03;14.60;;;3.10;99.90;;;;;;5075580;28;20369;-69
2022/01/28 05:39:30;;;;;;;32.85;14.32;;;3.10;99.90;;;;;;5075627;28;20027;-72
2022/01/28 05:41:56;;;;;;;36.80;16.10;;;3.10;99.90;;;;;;5075744;28;20027;-70
2022/01/28 05:44:22;;;;;;;39.43;16.03;;;3.10;99.90;;;;;;5075752;28;20028;-72
2022/01/28 05:46:49;;;;;;;32.92;14.38;;;3.10;99.90;;;;;;5075545;28;20501;-71
2022/01/28 05:49:16;;;;;;;38.78;16.38;;;3.10;99.90;;;;;;5075393;28;20032;-71
2022/01/28 05:51:43;;;;;;;37.42;14.75;;;3.10;99.90;;;;;;5075271;28;20461;-71
2022/01/28 05:54:09;;;;;;;36.30;14.02;;;3.10;99.90;;;;;;5075177;28;20085;-70
2022/01/28 05:56:35;;;;;;;38.53;15.18;;;3.10;99.90;;;;;;5093307;28;20043;-71
2022/01/28 05:59:01;;;;;;;37.33;15.32;;;3.10;99.90;;;;;;5093652;28;20446;-69
2022/01/28 06:01:28;;;;;;;37.67;15.20;;;3.10;99.90;;;;;;5093508;28;20032;-70
2022/01/28 06:03:54;;;;;;;40.50;16.47;;;3.10;99.90;;;;;;5092981;28;20031;-70
2022/01/28 06:06:21;;;;;;;40.72;16.90;;;3.10;99.90;;;;;;5074932;28;20066;-70
2022/01/28 06:08:53;;;;;;;42.85;17.17;;;3.10;99.90;;;;;;5074922;28;20119;-70
2022/01/28 06:11:20;;;;;;;41.22;16.17;;;3.10;99.90;;;;;;5078642;28;20050;-70
2022/01/28 06:13:46;;;;;;;41.33;15.73;;;3.00;99.90;;;;;;5096868;28;20035;-70
2022/01/28 06:16:14;;;;;;;39.58;16.33;;;3.00;99.90;;;;;;5079527;28;20028;-70
2022/01/28 06:18:40;;;;;;;37.40;15.43;;;3.00;99.90;;;;;;5079041;28;20024;-71
2022/01/28 06:21:06;;;;;;;39.30;17.02;;;3.00;99.90;;;;;;5078646;28;20077;-70
2022/01/28 06:23:32;;;;;;;40.95;16.48;;;3.00;99.90;;;;;;5096989;28;20020;-70
2022/01/28 06:25:59;;;;;;;40.67;15.88;;;3.00;99.90;;;;;;5096701;28;20024;-71
2022/01/28 06:28:25;;;;;;;39.92;16.45;;;2.90;99.90;;;;;;5096736;28;20069;-70
2022/01/28 06:30:51;;;;;;;45.53;16.20;;;3.00;99.90;;;;;;5096536;28;20024;-71
2022/01/28 06:33:17;;;;;;;40.33;15.50;;;3.00;99.90;;;;;;5096563;28;20114;-71
2022/01/28 06:35:44;;;;;;;40.17;15.17;;;2.90;99.90;;;;;;5096842;28;20054;-71
2022/01/28 06:38:10;;;;;;;42.72;15.57;;;2.90;99.90;;;;;;5096827;28;20380;-71
2022/01/28 06:40:37;;;;;;;44.25;15.95;;;2.90;99.90;;;;;;5078900;28;20023;-70
2022/01/28 06:43:03;;;;;;;40.58;15.77;;;2.90;99.90;;;;;;5096795;28;20032;-70
2022/01/28 06:45:29;;;;;;;35.75;14.90;;;2.80;99.90;;;;;;5096797;28;20028;-70
2022/01/28 06:47:54;;;;;;;40.67;15.60;;;2.90;99.90;;;;;;5078561;28;20115;-71
2022/01/28 06:50:20;;;;;;;36.27;14.97;;;2.90;99.90;;;;;;5097422;28;20103;-70
2022/01/28 06:52:46;;;;;;;43.33;15.70;;;2.90;99.90;;;;;;5078852;28;20091;-71
2022/01/28 06:55:14;;;;;;;44.58;15.65;;;2.90;99.90;;;;;;5078519;28;20349;-71
2022/01/28 06:57:40;;;;;;;39.03;16.02;;;2.90;99.90;;;;;;5078893;28;20088;-70
2022/01/28 07:00:08;;;;;;;38.35;15.50;;;2.90;99.90;;;;;;5097746;28;20091;-71
2022/01/28 07:02:34;;;;;;;40.85;16.13;;;2.90;99.90;;;;;;5082445;28;20076;-71
2022/01/28 07:05:00;;;;;;;37.67;15.90;;;3.00;99.90;;;;;;5100011;28;20028;-71
2022/01/28 07:07:27;;;;;;;43.57;15.00;;;2.90;99.90;;;;;;5098492;28;20078;-71
2022/01/28 07:09:53;;;;;;;37.33;14.95;;;3.00;99.90;;;;;;5102002;28;20032;-71
2022/01/28 07:12:19;;;;;;;38.25;15.75;;;3.00;99.90;;;;;;5082489;28;20059;-71
2022/01/28 07:14:46;;;;;;;39.22;14.93;;;3.00;99.90;;;;;;5080941;28;20459;-71
2022/01/28 07:17:12;;;;;;;36.03;14.80;;;3.00;99.90;;;;;;5097514;28;20027;-73
2022/01/28 07:19:38;;;;;;;38.45;15.90;;;3.00;99.90;;;;;;5078977;28;20031;-71
2022/01/28 07:22:04;;;;;;;39.23;16.10;;;3.00;99.90;;;;;;5096887;28;20032;-69
2022/01/28 07:24:29;;;;;;;33.15;14.68;;;3.00;99.90;;;;;;5078700;28;20078;-70
2022/01/28 07:26:55;;;;;;;39.97;15.10;;;3.10;99.90;;;;;;5078237;28;20481;-70
2022/01/28 07:29:24;;;;;;;36.60;15.00;;;3.10;99.90;;;;;;5078899;28;20024;-70
2022/01/28 07:31:50;;;;;;;39.65;15.90;;;3.20;99.90;;;;;;5098369;28;20035;-71
2022/01/28 07:34:15;;;;;;;36.50;14.53;;;3.10;99.90;;;;;;5098189;28;20024;-69
2022/01/28 07:36:41;;;;;;;32.07;14.00;;;3.10;99.90;;;;;;5097004;28;20024;-70
2022/01/28 07:39:07;;;;;;;37.53;17.13;;;3.10;99.90;;;;;;5077939;28;20051;-66
2022/01/28 07:41:34;;;;;;;34.38;15.25;;;3.20;99.90;;;;;;5096458;28;20035;-67
2022/01/28 07:43:59;;;;;;;33.10;14.85;;;3.20;99.90;;;;;;5077715;28;20024;-66
2022/01/28 07:46:25;;;;;;;39.33;14.90;;;3.20;99.90;;;;;;5096387;28;20024;-67
2022/01/28 07:48:51;;;;;;;35.93;14.63;;;3.20;99.90;;;;;;5095687;28;20028;-67
2022/01/28 07:51:17;;;;;;;34.17;14.33;;;3.20;99.90;;;;;;5077799;28;20024;-69
2022/01/28 07:53:43;;;;;;;30.92;13.77;;;3.20;99.90;;;;;;5078317;28;20050;-70
2022/01/28 07:56:08;;;;;;;30.13;14.25;;;3.30;99.90;;;;;;5078027;28;20032;-71
2022/01/28 07:58:34;;;;;;;34.53;14.77;;;3.30;99.90;;;;;;5078109;28;20042;-70
2022/01/28 08:01:00;;;;;;;31.77;14.25;;;3.30;99.90;;;;;;5077786;28;20130;-69
2022/01/28 08:03:26;;;;;;;32.87;14.43;;;3.30;99.90;;;;;;5095484;28;20062;-68
2022/01/28 08:05:51;;;;;;;37.08;15.40;;;3.40;99.90;;;;;;5095293;28;20503;-68
2022/01/28 08:08:20;;;;;;;33.63;14.43;;;3.40;99.90;;;;;;5077188;28;20066;-68
2022/01/28 08:10:46;;;;;;;31.50;13.07;;;3.40;99.90;;;;;;5095576;28;20099;-69
2022/01/28 08:13:12;;;;;;;38.67;14.48;;;3.40;99.90;;;;;;5094799;28;20024;-69
2022/01/28 08:15:39;;;;;;;28.42;14.85;;;3.40;99.90;;;;;;5076875;28;20102;-70
2022/01/28 08:18:05;;;;;;;30.63;12.88;;;3.40;99.90;;;;;;5076678;28;20057;-68
2022/01/28 08:20:31;;;;;;;32.50;14.07;;;3.50;99.90;;;;;;5095175;28;20108;-68
2022/01/28 08:22:58;;;;;;;30.53;13.00;;;3.50;99.90;;;;;;5095010;28;20488;-68
2022/01/28 08:25:26;;;;;;;32.25;13.65;;;3.50;99.90;;;;;;5094934;28;20645;-70
2022/01/28 08:27:53;;;;;;;36.50;14.35;;;3.60;99.90;;;;;;5095585;28;20028;-69
2022/01/28 08:30:25;;;;;;;33.35;14.48;;;3.50;99.90;;;;;;5076979;28;20389;-69
2022/01/28 08:32:51;;;;;;;34.67;13.23;;;3.60;99.90;;;;;;5094409;28;20024;-68
2022/01/28 08:35:24;;;;;;;29.02;13.65;;;3.60;99.90;;;;;;5096080;28;20074;-69
2022/01/28 08:37:50;;;;;;;32.55;14.23;;;3.60;99.90;;;;;;5095531;28;20046;-70
2022/01/28 08:40:17;;;;;;;36.40;14.52;;;3.70;99.90;;;;;;5076668;28;20531;-69
2022/01/28 08:42:42;;;;;;;34.67;14.07;;;3.70;99.90;;;;;;5094863;28;20028;-69
2022/01/28 08:45:09;;;;;;;28.13;14.13;;;3.80;99.90;;;;;;5095229;28;20035;-69
2022/01/28 08:47:34;;;;;;;28.77;14.05;;;3.80;99.90;;;;;;5094540;28;20028;-68
2022/01/28 08:50:00;;;;;;;30.83;13.87;;;3.80;99.90;;;;;;5094748;28;20029;-69
2022/01/28 08:52:26;;;;;;;30.17;13.20;;;3.90;99.90;;;;;;5076213;28;20020;-69
2022/01/28 08:54:51;;;;;;;31.67;13.73;;;4.00;99.90;;;;;;5076578;28;20127;-69
2022/01/28 08:57:17;;;;;;;27.60;13.48;;;4.00;99.90;;;;;;5076726;28;20016;-69
2022/01/28 08:59:44;;;;;;;26.65;13.02;;;4.00;99.90;;;;;;5095389;28;20032;-69
2022/01/28 09:02:10;;;;;;;28.83;14.48;;;4.00;99.90;;;;;;5094523;28;20028;-69
2022/01/28 09:04:36;;;;;;;29.58;13.63;;;4.00;99.90;;;;;;5094645;28;20100;-68
2022/01/28 09:07:02;;;;;;;27.87;13.07;;;4.10;99.90;;;;;;5076475;28;20057;-66
2022/01/28 09:09:29;;;;;;;29.98;13.15;;;4.20;99.90;;;;;;5094224;28;20024;-71
2022/01/28 09:12:07;;;;;;;;;;;4.20;99.90;;;;;;5094311;28;20028;-66
2022/01/28 09:14:34;;;;;;;30.55;12.38;;;4.20;99.90;;;;;;5094392;28;19912;-67
2022/01/28 09:16:59;;;;;;;26.52;12.88;;;4.30;99.90;;;;;;5094618;28;20058;-66
2022/01/28 09:19:28;;;;;;;27.53;13.13;;;4.40;99.90;;;;;;5075993;28;20424;-67
2022/01/28 09:22:01;;;;;;;27.75;13.18;;;4.50;99.90;;;;;;5094055;28;20103;-66
2022/01/28 09:24:27;;;;;;;27.13;11.93;;;4.50;99.90;;;;;;5094054;28;20098;-66
2022/01/28 09:26:54;;;;;;;27.17;13.03;;;4.50;99.90;;;;;;5094288;28;20024;-66
2022/01/28 09:29:22;;;;;;;23.73;11.85;;;4.60;99.90;;;;;;5093720;28;20102;-67
2022/01/28 09:31:47;;;;;;;27.42;13.38;;;4.60;99.90;;;;;;5075517;28;20477;-69
2022/01/28 09:34:13;;;;;;;29.37;13.50;;;4.70;99.90;;;;;;5093702;28;20069;-70
2022/01/28 09:36:39;;;;;;;28.97;14.73;;;4.70;99.90;;;;;;5075698;28;20124;-69
2022/01/28 09:39:06;;;;;;;28.20;13.30;;;4.70;99.90;;;;;;5095689;28;20028;-68
2022/01/28 09:41:32;;;;;;;29.17;13.80;;;4.80;99.90;;;;;;5075289;28;20028;-67
2022/01/28 09:44:00;;;;;;;28.13;12.13;;;4.90;99.90;;;;;;5093583;28;20101;-71
2022/01/28 09:46:26;;;;;;;25.55;12.55;;;4.90;99.90;;;;;;5093717;28;20370;-68
2022/01/28 09:48:52;;;;;;;24.45;12.10;;;4.90;99.90;;;;;;5075955;28;20020;-71
2022/01/28 09:51:18;;;;;;;25.00;11.73;;;4.90;99.90;;;;;;5094233;28;20032;-67
2022/01/28 09:53:43;;;;;;;23.70;11.50;;;4.90;99.90;;;;;;5093681;28;20289;-68
2022/01/28 09:56:09;;;;;;;22.00;12.00;;;4.90;99.90;;;;;;5093494;28;20039;-69
2022/01/28 09:58:36;;;;;;;26.37;11.63;;;5.00;99.90;;;;;;5093572;28;20020;-68
2022/01/28 10:01:03;;;;;;;26.23;12.20;;;4.90;99.90;;;;;;5093865;28;20357;-66
2022/01/28 10:03:28;;;;;;;28.50;12.52;;;5.00;99.90;;;;;;5093193;28;20020;-64
2022/01/28 10:05:57;;;;;;;27.50;11.70;;;5.00;99.90;;;;;;5093608;28;20024;-68
2022/01/28 10:08:25;;;;;;;26.65;12.02;;;5.10;99.90;;;;;;5075314;28;20469;-66
2022/01/28 10:10:59;;;;;;;22.55;11.23;;;5.10;99.90;;;;;;5093669;28;20031;-65
2022/01/28 10:13:51;;;;;;;25.23;11.65;;;5.20;99.90;;;;;;5093731;28;20392;-65
2022/01/28 10:16:19;;;;;;;25.25;11.85;;;5.20;99.90;;;;;;5093635;28;20027;-65
2022/01/28 10:18:54;;;;;;;24.48;11.77;;;5.30;99.90;;;;;;5093446;28;20020;-65
2022/01/28 10:21:36;;;;;;;26.23;11.65;;;5.40;99.90;;;;;;5093304;28;20028;-65
2022/01/28 10:24:14;;;;;;;26.23;11.90;;;5.40;99.90;;;;;;5093560;28;20437;-64
2022/01/28 10:26:41;;;;;;;23.85;12.00;;;5.50;99.90;;;;;;5093337;28;20031;-68
2022/01/28 10:29:14;;;;;;;23.75;11.68;;;5.60;99.90;;;;;;5074927;28;20387;-66
2022/01/28 10:31:41;;;;;;;24.40;12.77;;;5.60;99.90;;;;;;5074868;28;20031;-65
2022/01/28 10:34:16;;;;;;;24.10;11.95;;;5.50;99.90;;;;;;5092848;28;20016;-66
2022/01/28 10:36:42;;;;;;;25.33;11.70;;;5.50;99.90;;;;;;5093003;28;20024;-67
2022/01/28 10:39:20;;;;;;;19.70;11.07;;;5.50;99.90;;;;;;5074576;28;20024;-67
2022/01/28 10:41:54;;;;;;;24.25;12.82;;;5.60;99.90;;;;;;5092717;28;20396;-67
2022/01/28 10:44:20;;;;;;;25.45;12.30;;;5.70;99.90;;;;;;5092779;28;20028;-67
2022/01/28 10:47:01;;;;;;;26.67;12.82;;;5.80;99.90;;;;;;5092733;28;20492;-68
2022/01/28 10:49:29;;;;;;;24.75;12.25;;;5.90;99.90;;;;;;5092671;28;20028;-66
2022/01/28 10:52:01;;;;;;;22.77;11.32;;;5.90;99.90;;;;;;5092431;28;20031;-67
2022/01/28 10:54:26;;;;;;;23.08;11.07;;;5.80;99.90;;;;;;5092769;28;20026;-67
2022/01/28 10:57:03;;;;;;;24.37;12.63;;;5.70;99.90;;;;;;5077037;28;20020;-67
2022/01/28 10:59:35;;;;;;;26.45;12.52;;;5.70;99.90;;;;;;5096191;28;20361;-67
2022/01/28 11:02:02;;;;;;;23.42;12.23;;;5.70;99.90;;;;;;5096395;28;20040;-67
2022/01/28 11:04:27;;;;;;;;;;;5.70;99.90;;;;;;5096489;28;20020;-68
2022/01/28 11:06:57;;;;;;;26.17;11.93;;;5.70;99.90;;;;;;5096300;28;20380;-67
2022/01/28 11:09:22;;;;;;;24.85;12.35;;;5.70;99.90;;;;;;5095966;28;20027;-67
2022/01/28 11:11:50;;;;;;;27.57;12.93;;;5.80;99.90;;;;;;5077842;28;20119;-66
2022/01/28 11:14:17;;;;;;;24.08;12.93;;;5.90;99.90;;;;;;5095965;28;20773;-67
2022/01/28 11:16:43;;;;;;;25.27;12.60;;;6.00;99.90;;;;;;5096141;28;20024;-67
2022/01/28 11:19:11;;;;;;;27.60;13.90;;;6.20;99.90;;;;;;5096225;28;20024;-67
2022/01/28 11:21:55;;;;;;;28.45;13.15;;;6.40;99.90;;;;;;5095967;28;20046;-67
2022/01/28 11:24:40;;;;;;;29.45;13.57;;;6.40;99.90;;;;;;5077496;28;20052;-66
2022/01/28 11:27:18;;;;;;;25.52;12.75;;;6.40;99.90;;;;;;5095824;28;20095;-67
2022/01/28 11:29:44;;;;;;;28.38;12.25;;;6.50;99.90;;;;;;5096030;28;20031;-66
2022/01/28 11:32:13;;;;;;;21.50;11.30;;;6.80;99.90;;;;;;5096520;28;20024;-69
2022/01/28 11:34:56;;;;;;;25.42;11.70;;;6.80;99.90;;;;;;5078226;28;20030;-69
2022/01/28 11:37:30;;;;;;;28.52;12.95;;;6.80;99.90;;;;;;5078001;28;20047;-69
2022/01/28 11:40:12;;;;;;;25.02;12.07;;;6.80;99.90;;;;;;5077665;28;20024;-69
2022/01/28 11:42:38;;;;;;;28.55;12.68;;;6.90;99.90;;;;;;5096009;28;20060;-68
2022/01/28 11:45:06;;;;;;;21.38;9.98;;;7.00;99.90;;;;;;5095771;28;20051;-68
2022/01/28 11:47:53;;;;;;;21.27;10.85;;;7.00;99.90;;;;;;5084836;28;20534;-70
2022/01/28 11:50:22;;;;;;;19.42;10.60;;;6.90;99.90;;;;;;5095707;28;20051;-68
2022/01/28 11:52:49;;;;;;;23.88;10.63;;;6.80;99.90;;;;;;5095418;28;20032;-69
2022/01/28 11:55:31;;;;;;;23.33;11.90;;;6.80;99.90;;;;;;5077763;28;20054;-68
2022/01/28 11:58:12;;;;;;;27.50;12.57;;;6.70;99.90;;;;;;5077430;28;20025;-68
2022/01/28 12:00:39;;;;;;;25.25;12.65;;;6.80;99.90;;;;;;5077095;28;20050;-68
2022/01/28 12:03:37;;;;;;;23.55;11.27;;;6.90;99.90;;;;;;5095883;28;20468;-68
2022/01/28 12:06:08;;;;;;;21.17;10.95;;;6.90;99.90;;;;;;5050750;28;20536;-68
2022/01/28 12:08:34;;;;;;;20.58;10.52;;;6.90;99.90;;;;;;5076330;28;20090;-68
2022/01/28 12:11:03;;;;;;;23.77;10.70;;;6.90;99.90;;;;;;5077141;28;20028;-66
2022/01/28 12:13:52;;;;;;;20.52;10.77;;;6.90;99.90;;;;;;5095142;28;20469;-67
2022/01/28 12:16:34;;;;;;;23.48;10.85;;;6.90;99.90;;;;;;5077497;28;20020;-67
2022/01/28 12:19:02;;;;;;;22.55;10.65;;;6.80;99.90;;;;;;5095481;28;20437;-69
2022/01/28 12:21:34;;;;;;;18.88;10.23;;;6.90;99.90;;;;;;5095955;28;20028;-68
2022/01/28 12:24:18;;;;;;;16.90;9.50;;;6.90;99.90;;;;;;5096723;28;20016;-68
2022/01/28 12:27:08;;;;;;;19.38;10.00;;;7.00;99.90;;;;;;5095800;28;20051;-67
2022/01/28 12:29:43;;;;;;;24.80;11.20;;;7.00;99.90;;;;;;5094988;28;20389;-66
2022/01/28 12:32:12;;;;;;;20.52;9.35;;;7.10;99.90;;;;;;5094945;28;20065;-69
2022/01/28 12:34:46;;;;;;;20.40;9.60;;;7.30;99.90;;;;;;5076755;28;20053;-68
2022/01/28 12:37:13;;;;;;;18.70;9.05;;;7.20;99.90;;;;;;5094855;28;20422;-68
2022/01/28 12:39:44;;;;;;;;;;;7.20;99.90;;;;;;5094900;28;20434;-68
2022/01/28 12:42:22;;;;;;;20.60;9.57;;;7.20;99.90;;;;;;5094413;28;20415;-68
2022/01/28 12:44:54;;;;;;;18.13;8.23;;;7.20;99.90;;;;;;5094606;28;20028;-69
2022/01/28 12:47:24;;;;;;;20.98;8.55;;;7.20;99.90;;;;;;5094623;28;20077;-69
2022/01/28 12:50:02;;;;;;;18.40;8.70;;;7.20;99.90;;;;;;5076183;28;20020;-69
2022/01/28 12:52:31;;;;;;;19.65;9.20;;;7.20;99.90;;;;;;5094194;28;20024;-68
2022/01/28 12:54:56;;;;;;;17.80;8.40;;;7.20;99.90;;;;;;5094367;28;20020;-68
2022/01/28 12:57:22;;;;;;;17.47;8.87;;;7.20;99.90;;;;;;5094339;28;20564;-69
2022/01/28 12:59:49;;;;;;;18.43;8.90;;;7.20;99.90;;;;;;5094346;28;20102;-68
2022/01/28 13:02:17;;;;;;;15.88;8.23;;;7.20;99.90;;;;;;5093749;28;20273;-69
2022/01/28 13:09:54;;;;;;;16.40;7.90;;;7.20;99.90;;;;;;5094388;28;20118;-68
2022/01/28 13:12:28;;;;;;;15.90;7.10;;;7.20;99.90;;;;;;5094321;28;20039;-68
2022/01/28 13:14:55;;;;;;;16.92;7.85;;;7.20;99.90;;;;;;5099315;28;20081;-69
2022/01/28 13:17:22;;;;;;;23.02;7.93;;;7.20;99.90;;;;;;5094259;28;20100;-68
2022/01/28 13:19:59;;;;;;;19.60;7.32;;;7.30;99.90;;;;;;5094464;28;20028;-67
2022/01/28 13:22:27;;;;;;;62.88;22.17;;;7.20;99.90;;;;;;5093869;28;20035;-66
2022/01/28 13:24:53;;;;;;;27.55;10.90;;;7.30;99.90;;;;;;5093569;28;20032;-68
2022/01/28 13:27:21;;;;;;;40.47;15.07;;;7.30;99.90;;;;;;5075330;28;20024;-68
2022/01/28 13:29:51;;;;;;;18.23;7.60;;;7.40;99.90;;;;;;5093591;28;20034;-68
2022/01/28 13:32:22;;;;;;;15.95;7.05;;;7.40;99.90;;;;;;5093581;28;20469;-69
2022/01/28 13:34:55;;;;;;;16.52;7.22;;;7.50;99.90;;;;;;5093684;28;20115;-67
2022/01/28 13:37:40;;;;;;;18.88;8.07;;;7.60;99.90;;;;;;5093987;28;20046;-68
2022/01/28 13:40:28;;;;;;;14.45;7.28;;;7.60;99.90;;;;;;5093601;28;20028;-66
2022/01/28 13:43:18;;;;;;;15.15;6.72;;;7.70;99.90;;;;;;5094457;28;20031;-67
2022/01/28 13:45:56;;;;;;;17.17;7.65;;;7.70;99.90;;;;;;5094594;28;20038;-66
2022/01/28 13:48:36;;;;;;;17.00;7.60;;;7.80;99.90;;;;;;5075184;28;20064;-66
2022/01/28 13:51:11;;;;;;;12.85;6.53;;;7.90;99.90;;;;;;5093212;28;20024;-67
2022/01/28 13:56:29;;;;;;;15.10;7.00;;;7.90;99.90;;;;;;5093525;28;20099;-66
2022/01/28 13:58:55;;;;;;;11.65;5.97;;;7.90;99.90;;;;;;5093774;28;20024;-67
2022/01/28 14:01:23;;;;;;;12.60;6.47;;;7.70;99.90;;;;;;5093519;28;20016;-66
2022/01/28 14:04:00;;;;;;;21.48;6.82;;;7.60;99.90;;;;;;5093390;28;20370;-68
2022/01/28 14:06:28;;;;;;;16.70;7.90;;;7.60;99.90;;;;;;5093554;28;20016;-68
2022/01/28 14:09:10;;;;;;;14.32;6.40;;;7.60;99.90;;;;;;5093334;28;20300;-68
2022/01/28 14:11:48;;;;;;;14.82;6.25;;;7.70;99.90;;;;;;5093145;28;20073;-68
2022/01/28 14:14:43;;;;;;;16.63;6.90;;;7.70;99.90;;;;;;5092952;28;20028;-68
2022/01/28 14:17:11;;;;;;;15.50;6.43;;;7.70;99.90;;;;;;5075004;28;20031;-68
2022/01/28 14:19:39;;;;;;;10.23;5.80;;;7.70;99.90;;;;;;5093621;28;20476;-68
2022/01/28 14:22:08;;;;;;;16.90;6.90;;;7.70;99.90;;;;;;5074863;28;20037;-68
2022/01/28 14:24:36;;;;;;;13.23;7.25;;;7.70;99.90;;;;;;5093654;28;20016;-68
2022/01/28 14:32:09;;;;;;;16.50;7.30;;;7.50;99.90;;;;;;5098895;28;20031;-66
2022/01/28 14:34:36;;;;;;;13.90;6.70;;;7.40;99.90;;;;;;5097451;28;20413;-67
2022/01/28 14:37:03;;;;;;;13.55;6.18;;;7.40;99.90;;;;;;5097176;28;20020;-67